sensor_id;sensor_type;location;lat;lon;timestamp;P1;durP1;ratioP1;P2;durP2;ratioP2
29776;SDS011;16677;52.224;7.484;2022-08-21T00:00:58;10.90;;;5.27;;
29776;SDS011;16677;52.224;7.484;2022-08-21T00:03:47;10.17;;;5.53;;
29776;SDS011;16677;52.224;7.484;2022-08-21T00:06:50;9.23;;;5.30;;
29776;SDS011;16677;52.224;7.484;2022-08-21T00:09:18;10.45;;;5.78;;
29776;SDS011;16677;52.224;7.484;2022-08-21T00:19:38;8.80;;;4.50;;
29776;SDS011;16677;52.224;7.484;2022-08-21T00:22:19;10.53;;;5.13;;
29776;SDS011;16677;52.224;7.484;2022-08-21T01:25:28;9.07;;;5.93;;
29776;SDS011;16677;52.224;7.484;2022-08-21T01:32:39;11.55;;;7.68;;
29776;SDS011;16677;52.224;7.484;2022-08-21T01:35:22;10.67;;;6.50;;
29776;SDS011;16677;52.224;7.484;2022-08-21T01:38:32;11.70;;;6.80;;
29776;SDS011;16677;52.224;7.484;2022-08-21T01:41:14;9.00;;;6.57;;
29776;SDS011;16677;52.224;7.484;2022-08-21T01:44:07;13.07;;;6.40;;
29776;SDS011;16677;52.224;7.484;2022-08-21T01:46:51;10.30;;;6.50;;
29776;SDS011;16677;52.224;7.484;2022-08-21T01:49:24;12.53;;;6.50;;
29776;SDS011;16677;52.224;7.484;2022-08-21T01:51:52;9.03;;;6.50;;
29776;SDS011;16677;52.224;7.484;2022-08-21T01:54:33;11.70;;;7.47;;
29776;SDS011;16677;52.224;7.484;2022-08-21T01:57:15;8.93;;;7.23;;
29776;SDS011;16677;52.224;7.484;2022-08-21T01:59:56;9.23;;;6.73;;
29776;SDS011;16677;52.224;7.484;2022-08-21T02:03:42;9.80;;;7.23;;
29776;SDS011;16677;52.224;7.484;2022-08-21T02:06:14;11.80;;;7.23;;
29776;SDS011;16677;52.224;7.484;2022-08-21T02:08:44;11.17;;;7.27;;
29776;SDS011;16677;52.224;7.484;2022-08-21T02:11:13;10.83;;;6.87;;
29776;SDS011;16677;52.224;7.484;2022-08-21T02:13:41;11.03;;;7.50;;
29776;SDS011;16677;52.224;7.484;2022-08-21T02:16:09;11.03;;;7.10;;
29776;SDS011;16677;52.224;7.484;2022-08-21T02:18:41;15.03;;;7.70;;
29776;SDS011;16677;52.224;7.484;2022-08-21T02:21:09;13.73;;;8.77;;
29776;SDS011;16677;52.224;7.484;2022-08-21T02:23:36;13.67;;;8.20;;
29776;SDS011;16677;52.224;7.484;2022-08-21T02:26:04;10.70;;;7.70;;
29776;SDS011;16677;52.224;7.484;2022-08-21T02:28:34;9.53;;;7.50;;
29776;SDS011;16677;52.224;7.484;2022-08-21T02:31:05;15.70;;;8.80;;
29776;SDS011;16677;52.224;7.484;2022-08-21T02:33:32;10.27;;;7.60;;
29776;SDS011;16677;52.224;7.484;2022-08-21T02:36:00;10.90;;;8.13;;
29776;SDS011;16677;52.224;7.484;2022-08-21T02:38:29;12.07;;;8.43;;
29776;SDS011;16677;52.224;7.484;2022-08-21T02:41:05;20.20;;;12.40;;
29776;SDS011;16677;52.224;7.484;2022-08-21T02:43:34;13.83;;;9.63;;
29776;SDS011;16677;52.224;7.484;2022-08-21T02:46:03;19.05;;;15.52;;
29776;SDS011;16677;52.224;7.484;2022-08-21T02:48:32;19.53;;;15.33;;
29776;SDS011;16677;52.224;7.484;2022-08-21T02:51:02;18.83;;;11.23;;
29776;SDS011;16677;52.224;7.484;2022-08-21T02:53:33;16.57;;;9.23;;
29776;SDS011;16677;52.224;7.484;2022-08-21T02:56:03;13.33;;;9.50;;
29776;SDS011;16677;52.224;7.484;2022-08-21T02:58:35;15.53;;;10.03;;
29776;SDS011;16677;52.224;7.484;2022-08-21T03:01:05;11.73;;;9.63;;
29776;SDS011;16677;52.224;7.484;2022-08-21T03:03:52;12.37;;;9.20;;
29776;SDS011;16677;52.224;7.484;2022-08-21T03:06:33;13.47;;;9.93;;
29776;SDS011;16677;52.224;7.484;2022-08-21T03:09:00;12.77;;;10.77;;
29776;SDS011;16677;52.224;7.484;2022-08-21T03:11:28;13.33;;;10.00;;
29776;SDS011;16677;52.224;7.484;2022-08-21T03:13:55;14.23;;;10.53;;
29776;SDS011;16677;52.224;7.484;2022-08-21T03:16:23;12.50;;;10.80;;
29776;SDS011;16677;52.224;7.484;2022-08-21T03:18:50;20.63;;;10.30;;
29776;SDS011;16677;52.224;7.484;2022-08-21T03:23:45;12.53;;;10.70;;
29776;SDS011;16677;52.224;7.484;2022-08-21T03:26:13;18.10;;;12.03;;
29776;SDS011;16677;52.224;7.484;2022-08-21T03:28:41;15.90;;;11.57;;
29776;SDS011;16677;52.224;7.484;2022-08-21T03:31:08;13.47;;;10.87;;
29776;SDS011;16677;52.224;7.484;2022-08-21T03:33:35;14.13;;;11.07;;
29776;SDS011;16677;52.224;7.484;2022-08-21T03:41:33;14.70;;;12.77;;
29776;SDS011;16677;52.224;7.484;2022-08-21T03:44:00;17.53;;;13.53;;
29776;SDS011;16677;52.224;7.484;2022-08-21T03:46:28;26.37;;;23.07;;
29776;SDS011;16677;52.224;7.484;2022-08-21T03:51:37;12.27;;;10.77;;
29776;SDS011;16677;52.224;7.484;2022-08-21T03:54:05;14.60;;;11.50;;
29776;SDS011;16677;52.224;7.484;2022-08-21T03:56:33;13.63;;;10.80;;
29776;SDS011;16677;52.224;7.484;2022-08-21T03:59:01;12.17;;;10.87;;
29776;SDS011;16677;52.224;7.484;2022-08-21T04:01:29;12.70;;;11.40;;
29776;SDS011;16677;52.224;7.484;2022-08-21T04:03:56;13.17;;;11.30;;
29776;SDS011;16677;52.224;7.484;2022-08-21T04:06:25;14.13;;;11.33;;
29776;SDS011;16677;52.224;7.484;2022-08-21T04:09:14;12.17;;;10.73;;
29776;SDS011;16677;52.224;7.484;2022-08-21T04:12:03;16.23;;;11.93;;
29776;SDS011;16677;52.224;7.484;2022-08-21T04:14:54;12.97;;;11.60;;
29776;SDS011;16677;52.224;7.484;2022-08-21T04:17:33;14.60;;;12.17;;
29776;SDS011;16677;52.224;7.484;2022-08-21T04:41:41;14.33;;;12.90;;
29776;SDS011;16677;52.224;7.484;2022-08-21T04:44:15;11.67;;;10.57;;
29776;SDS011;16677;52.224;7.484;2022-08-21T04:57:30;12.20;;;10.97;;
29776;SDS011;16677;52.224;7.484;2022-08-21T05:00:15;11.97;;;10.40;;
29776;SDS011;16677;52.224;7.484;2022-08-21T05:02:45;12.37;;;10.83;;
29776;SDS011;16677;52.224;7.484;2022-08-21T05:05:22;11.37;;;10.27;;
29776;SDS011;16677;52.224;7.484;2022-08-21T05:07:51;13.63;;;11.23;;
29776;SDS011;16677;52.224;7.484;2022-08-21T05:10:20;12.87;;;10.30;;
29776;SDS011;16677;52.224;7.484;2022-08-21T05:12:48;11.73;;;10.63;;
29776;SDS011;16677;52.224;7.484;2022-08-21T05:15:38;11.77;;;10.20;;
29776;SDS011;16677;52.224;7.484;2022-08-21T05:18:06;12.33;;;11.13;;
29776;SDS011;16677;52.224;7.484;2022-08-21T05:20:34;11.57;;;10.37;;
29776;SDS011;16677;52.224;7.484;2022-08-21T05:23:10;12.90;;;10.30;;
29776;SDS011;16677;52.224;7.484;2022-08-21T05:25:43;10.73;;;9.63;;
29776;SDS011;16677;52.224;7.484;2022-08-21T05:28:11;11.43;;;9.63;;
29776;SDS011;16677;52.224;7.484;2022-08-21T05:30:39;11.10;;;10.10;;
29776;SDS011;16677;52.224;7.484;2022-08-21T05:33:21;14.97;;;10.57;;
29776;SDS011;16677;52.224;7.484;2022-08-21T05:35:52;10.30;;;8.63;;
29776;SDS011;16677;52.224;7.484;2022-08-21T05:38:24;9.97;;;8.13;;
29776;SDS011;16677;52.224;7.484;2022-08-21T05:40:55;11.03;;;7.70;;
29776;SDS011;16677;52.224;7.484;2022-08-21T05:43:23;8.82;;;7.53;;
29776;SDS011;16677;52.224;7.484;2022-08-21T05:45:50;8.98;;;6.78;;
29776;SDS011;16677;52.224;7.484;2022-08-21T05:50:56;9.13;;;6.50;;
29776;SDS011;16677;52.224;7.484;2022-08-21T05:53:44;9.15;;;6.47;;
29776;SDS011;16677;52.224;7.484;2022-08-21T05:56:52;9.80;;;6.70;;
29776;SDS011;16677;52.224;7.484;2022-08-21T05:59:45;7.65;;;6.05;;
29776;SDS011;16677;52.224;7.484;2022-08-21T06:02:12;11.37;;;6.13;;
29776;SDS011;16677;52.224;7.484;2022-08-21T06:04:39;7.80;;;6.37;;
29776;SDS011;16677;52.224;7.484;2022-08-21T06:07:07;8.47;;;5.70;;
29776;SDS011;16677;52.224;7.484;2022-08-21T06:09:35;6.60;;;5.30;;
29776;SDS011;16677;52.224;7.484;2022-08-21T06:12:05;6.97;;;6.00;;
29776;SDS011;16677;52.224;7.484;2022-08-21T06:14:35;7.30;;;5.30;;
29776;SDS011;16677;52.224;7.484;2022-08-21T06:17:44;6.38;;;5.55;;
29776;SDS011;16677;52.224;7.484;2022-08-21T06:20:13;28.43;;;23.33;;
29776;SDS011;16677;52.224;7.484;2022-08-21T06:22:42;12.32;;;10.70;;
29776;SDS011;16677;52.224;7.484;2022-08-21T06:25:10;9.93;;;6.93;;
29776;SDS011;16677;52.224;7.484;2022-08-21T06:27:37;12.40;;;5.90;;
29776;SDS011;16677;52.224;7.484;2022-08-21T06:32:40;7.25;;;5.57;;
29776;SDS011;16677;52.224;7.484;2022-08-21T06:35:08;10.15;;;5.50;;
29776;SDS011;16677;52.224;7.484;2022-08-21T06:37:35;6.32;;;5.22;;
29776;SDS011;16677;52.224;7.484;2022-08-21T06:40:03;11.45;;;5.97;;
29776;SDS011;16677;52.224;7.484;2022-08-21T06:42:48;8.73;;;5.22;;
29776;SDS011;16677;52.224;7.484;2022-08-21T06:45:16;10.88;;;6.18;;
29776;SDS011;16677;52.224;7.484;2022-08-21T06:47:43;8.07;;;5.78;;
29776;SDS011;16677;52.224;7.484;2022-08-21T06:50:10;8.95;;;5.80;;
29776;SDS011;16677;52.224;7.484;2022-08-21T06:52:40;7.43;;;5.35;;
29776;SDS011;16677;52.224;7.484;2022-08-21T06:55:10;7.10;;;4.95;;
29776;SDS011;16677;52.224;7.484;2022-08-21T06:57:52;8.70;;;5.07;;
29776;SDS011;16677;52.224;7.484;2022-08-21T07:04:09;9.32;;;5.25;;
29776;SDS011;16677;52.224;7.484;2022-08-21T07:08:19;6.18;;;4.80;;
29776;SDS011;16677;52.224;7.484;2022-08-21T07:12:17;7.15;;;4.57;;
29776;SDS011;16677;52.224;7.484;2022-08-21T07:16:07;7.25;;;5.15;;
29776;SDS011;16677;52.224;7.484;2022-08-21T07:26:22;6.72;;;3.88;;
29776;SDS011;16677;52.224;7.484;2022-08-21T07:29:25;5.95;;;4.30;;
29776;SDS011;16677;52.224;7.484;2022-08-21T07:32:01;7.32;;;3.60;;
29776;SDS011;16677;52.224;7.484;2022-08-21T07:34:43;5.72;;;3.72;;
29776;SDS011;16677;52.224;7.484;2022-08-21T07:37:11;4.45;;;3.28;;
29776;SDS011;16677;52.224;7.484;2022-08-21T07:39:38;6.30;;;4.22;;
29776;SDS011;16677;52.224;7.484;2022-08-21T07:42:14;6.35;;;3.65;;
29776;SDS011;16677;52.224;7.484;2022-08-21T07:45:43;9.95;;;3.78;;
29776;SDS011;16677;52.224;7.484;2022-08-21T07:52:48;8.80;;;3.42;;
29776;SDS011;16677;52.224;7.484;2022-08-21T07:55:40;5.72;;;2.70;;
29776;SDS011;16677;52.224;7.484;2022-08-21T07:58:09;5.22;;;2.88;;
29776;SDS011;16677;52.224;7.484;2022-08-21T08:00:40;9.25;;;2.85;;
29776;SDS011;16677;52.224;7.484;2022-08-21T08:03:11;6.65;;;2.90;;
29776;SDS011;16677;52.224;7.484;2022-08-21T08:05:47;6.15;;;2.70;;
29776;SDS011;16677;52.224;7.484;2022-08-21T08:08:17;5.90;;;2.75;;
29776;SDS011;16677;52.224;7.484;2022-08-21T08:10:47;7.07;;;2.72;;
29776;SDS011;16677;52.224;7.484;2022-08-21T08:13:17;8.18;;;3.30;;
29776;SDS011;16677;52.224;7.484;2022-08-21T08:16:00;5.53;;;2.63;;
29776;SDS011;16677;52.224;7.484;2022-08-21T08:18:30;7.30;;;3.20;;
29776;SDS011;16677;52.224;7.484;2022-08-21T08:20:58;6.65;;;3.13;;
29776;SDS011;16677;52.224;7.484;2022-08-21T08:23:28;6.43;;;3.28;;
29776;SDS011;16677;52.224;7.484;2022-08-21T08:25:56;6.43;;;3.15;;
29776;SDS011;16677;52.224;7.484;2022-08-21T08:28:26;7.07;;;3.50;;
29776;SDS011;16677;52.224;7.484;2022-08-21T08:30:54;8.52;;;3.38;;
29776;SDS011;16677;52.224;7.484;2022-08-21T08:33:24;7.93;;;3.60;;
29776;SDS011;16677;52.224;7.484;2022-08-21T08:35:51;8.05;;;4.35;;
29776;SDS011;16677;52.224;7.484;2022-08-21T08:38:20;9.30;;;4.60;;
29776;SDS011;16677;52.224;7.484;2022-08-21T08:40:52;9.32;;;4.50;;
29776;SDS011;16677;52.224;7.484;2022-08-21T08:43:35;9.73;;;5.38;;
29776;SDS011;16677;52.224;7.484;2022-08-21T08:46:04;6.88;;;5.03;;
29776;SDS011;16677;52.224;7.484;2022-08-21T08:51:20;8.68;;;4.97;;
29776;SDS011;16677;52.224;7.484;2022-08-21T08:54:03;11.63;;;6.90;;
29776;SDS011;16677;52.224;7.484;2022-08-21T08:56:36;11.93;;;8.27;;
29776;SDS011;16677;52.224;7.484;2022-08-21T08:59:25;10.63;;;7.15;;
29776;SDS011;16677;52.224;7.484;2022-08-21T09:02:03;11.52;;;6.88;;
29776;SDS011;16677;52.224;7.484;2022-08-21T09:04:32;11.35;;;7.15;;
29776;SDS011;16677;52.224;7.484;2022-08-21T09:20:40;8.18;;;4.03;;
29776;SDS011;16677;52.224;7.484;2022-08-21T09:23:37;13.27;;;5.18;;
29776;SDS011;16677;52.224;7.484;2022-08-21T09:26:50;9.50;;;4.20;;
29776;SDS011;16677;52.224;7.484;2022-08-21T09:29:47;8.48;;;4.00;;
29776;SDS011;16677;52.224;7.484;2022-08-21T09:32:29;10.57;;;4.03;;
29776;SDS011;16677;52.224;7.484;2022-08-21T09:35:31;13.57;;;8.27;;
29776;SDS011;16677;52.224;7.484;2022-08-21T09:42:04;5.60;;;3.22;;
29776;SDS011;16677;52.224;7.484;2022-08-21T09:45:00;6.25;;;3.17;;
29776;SDS011;16677;52.224;7.484;2022-08-21T09:47:38;7.07;;;3.58;;
29776;SDS011;16677;52.224;7.484;2022-08-21T09:50:08;8.00;;;3.50;;
29776;SDS011;16677;52.224;7.484;2022-08-21T09:52:55;7.95;;;3.40;;
29776;SDS011;16677;52.224;7.484;2022-08-21T10:03:17;8.23;;;3.83;;
29776;SDS011;16677;52.224;7.484;2022-08-21T10:06:27;8.05;;;3.38;;
29776;SDS011;16677;52.224;7.484;2022-08-21T10:09:20;8.40;;;2.90;;
29776;SDS011;16677;52.224;7.484;2022-08-21T10:22:13;3.88;;;2.42;;
29776;SDS011;16677;52.224;7.484;2022-08-21T10:24:47;6.05;;;2.45;;
29776;SDS011;16677;52.224;7.484;2022-08-21T10:27:55;6.57;;;2.40;;
29776;SDS011;16677;52.224;7.484;2022-08-21T10:30:43;6.22;;;2.50;;
29776;SDS011;16677;52.224;7.484;2022-08-21T10:33:53;5.68;;;2.03;;
29776;SDS011;16677;52.224;7.484;2022-08-21T10:36:58;5.20;;;2.22;;
29776;SDS011;16677;52.224;7.484;2022-08-21T10:40:02;4.22;;;2.08;;
29776;SDS011;16677;52.224;7.484;2022-08-21T10:43:15;17.33;;;15.53;;
29776;SDS011;16677;52.224;7.484;2022-08-21T10:55:21;5.75;;;1.80;;
29776;SDS011;16677;52.224;7.484;2022-08-21T11:00:56;5.40;;;2.10;;
29776;SDS011;16677;52.224;7.484;2022-08-21T11:06:27;5.25;;;1.95;;
29776;SDS011;16677;52.224;7.484;2022-08-21T11:09:11;5.78;;;2.00;;
29776;SDS011;16677;52.224;7.484;2022-08-21T11:11:47;3.53;;;1.98;;
29776;SDS011;16677;52.224;7.484;2022-08-21T11:14:44;4.95;;;1.70;;
29776;SDS011;16677;52.224;7.484;2022-08-21T11:18:44;12.38;;;9.18;;
29776;SDS011;16677;52.224;7.484;2022-08-21T11:25:47;4.03;;;1.80;;
29776;SDS011;16677;52.224;7.484;2022-08-21T11:28:38;5.22;;;1.88;;
29776;SDS011;16677;52.224;7.484;2022-08-21T11:38:04;4.50;;;1.67;;
29776;SDS011;16677;52.224;7.484;2022-08-21T11:41:44;2.47;;;1.60;;
29776;SDS011;16677;52.224;7.484;2022-08-21T11:44:41;3.25;;;1.60;;
29776;SDS011;16677;52.224;7.484;2022-08-21T11:47:17;2.10;;;1.50;;
29776;SDS011;16677;52.224;7.484;2022-08-21T11:50:12;1.77;;;1.52;;
29776;SDS011;16677;52.224;7.484;2022-08-21T11:55:55;4.32;;;1.77;;
29776;SDS011;16677;52.224;7.484;2022-08-21T11:58:25;4.60;;;1.70;;
29776;SDS011;16677;52.224;7.484;2022-08-21T12:01:07;3.78;;;1.42;;
29776;SDS011;16677;52.224;7.484;2022-08-21T12:03:39;2.38;;;1.50;;
29776;SDS011;16677;52.224;7.484;2022-08-21T12:06:10;3.13;;;1.60;;
29776;SDS011;16677;52.224;7.484;2022-08-21T12:08:56;3.95;;;1.90;;
29776;SDS011;16677;52.224;7.484;2022-08-21T12:11:26;4.63;;;1.85;;
29776;SDS011;16677;52.224;7.484;2022-08-21T12:14:10;3.28;;;1.80;;
29776;SDS011;16677;52.224;7.484;2022-08-21T12:16:45;3.67;;;1.67;;
29776;SDS011;16677;52.224;7.484;2022-08-21T12:24:44;3.38;;;1.88;;
29776;SDS011;16677;52.224;7.484;2022-08-21T12:27:28;3.80;;;2.10;;
29776;SDS011;16677;52.224;7.484;2022-08-21T12:30:01;4.95;;;2.00;;
29776;SDS011;16677;52.224;7.484;2022-08-21T12:32:44;3.50;;;1.70;;
29776;SDS011;16677;52.224;7.484;2022-08-21T12:35:21;5.70;;;2.03;;
29776;SDS011;16677;52.224;7.484;2022-08-21T12:38:32;2.85;;;1.67;;
29776;SDS011;16677;52.224;7.484;2022-08-21T12:41:14;4.90;;;2.00;;
29776;SDS011;16677;52.224;7.484;2022-08-21T12:43:51;5.32;;;1.95;;
29776;SDS011;16677;52.224;7.484;2022-08-21T12:46:34;5.97;;;2.00;;
29776;SDS011;16677;52.224;7.484;2022-08-21T12:49:21;4.65;;;1.80;;
29776;SDS011;16677;52.224;7.484;2022-08-21T12:52:14;5.45;;;2.22;;
29776;SDS011;16677;52.224;7.484;2022-08-21T12:55:05;19.20;;;15.73;;
29776;SDS011;16677;52.224;7.484;2022-08-21T12:57:42;3.97;;;2.25;;
29776;SDS011;16677;52.224;7.484;2022-08-21T13:00:26;6.38;;;2.15;;
29776;SDS011;16677;52.224;7.484;2022-08-21T13:03:10;6.38;;;2.20;;
29776;SDS011;16677;52.224;7.484;2022-08-21T13:05:46;3.33;;;1.83;;
29776;SDS011;16677;52.224;7.484;2022-08-21T13:08:21;4.93;;;1.98;;
29776;SDS011;16677;52.224;7.484;2022-08-21T13:10:56;5.45;;;2.10;;
29776;SDS011;16677;52.224;7.484;2022-08-21T13:13:59;5.95;;;2.13;;
29776;SDS011;16677;52.224;7.484;2022-08-21T13:16:30;5.07;;;2.08;;
29776;SDS011;16677;52.224;7.484;2022-08-21T13:26:16;4.55;;;2.10;;
29776;SDS011;16677;52.224;7.484;2022-08-21T13:28:50;5.78;;;2.10;;
29776;SDS011;16677;52.224;7.484;2022-08-21T13:31:27;4.32;;;2.25;;
29776;SDS011;16677;52.224;7.484;2022-08-21T13:33:59;5.85;;;2.17;;
29776;SDS011;16677;52.224;7.484;2022-08-21T13:36:45;5.10;;;2.28;;
29776;SDS011;16677;52.224;7.484;2022-08-21T13:39:15;6.18;;;2.40;;
29776;SDS011;16677;52.224;7.484;2022-08-21T13:41:53;5.13;;;1.98;;
29776;SDS011;16677;52.224;7.484;2022-08-21T13:58:53;3.88;;;1.90;;
29776;SDS011;16677;52.224;7.484;2022-08-21T14:01:32;5.72;;;1.90;;
29776;SDS011;16677;52.224;7.484;2022-08-21T14:06:54;4.60;;;1.98;;
29776;SDS011;16677;52.224;7.484;2022-08-21T14:11:55;5.80;;;2.10;;
29776;SDS011;16677;52.224;7.484;2022-08-21T14:14:24;4.53;;;2.10;;
29776;SDS011;16677;52.224;7.484;2022-08-21T14:16:59;5.38;;;2.15;;
29776;SDS011;16677;52.224;7.484;2022-08-21T14:19:50;15.35;;;11.95;;
29776;SDS011;16677;52.224;7.484;2022-08-21T14:22:28;5.22;;;2.20;;
29776;SDS011;16677;52.224;7.484;2022-08-21T14:25:03;6.90;;;2.80;;
29776;SDS011;16677;52.224;7.484;2022-08-21T14:27:39;4.63;;;2.28;;
29776;SDS011;16677;52.224;7.484;2022-08-21T14:30:34;3.80;;;1.92;;
29776;SDS011;16677;52.224;7.484;2022-08-21T14:33:13;4.90;;;2.20;;
29776;SDS011;16677;52.224;7.484;2022-08-21T14:35:53;4.22;;;2.00;;
29776;SDS011;16677;52.224;7.484;2022-08-21T14:38:26;4.03;;;1.73;;
29776;SDS011;16677;52.224;7.484;2022-08-21T14:40:56;5.35;;;1.90;;
29776;SDS011;16677;52.224;7.484;2022-08-21T14:43:27;4.97;;;2.22;;
29776;SDS011;16677;52.224;7.484;2022-08-21T14:45:57;6.63;;;2.40;;
29776;SDS011;16677;52.224;7.484;2022-08-21T14:48:27;4.75;;;1.92;;
29776;SDS011;16677;52.224;7.484;2022-08-21T14:50:54;3.72;;;1.73;;
29776;SDS011;16677;52.224;7.484;2022-08-21T14:53:26;5.20;;;1.90;;
29776;SDS011;16677;52.224;7.484;2022-08-21T14:55:53;10.20;;;6.68;;
29776;SDS011;16677;52.224;7.484;2022-08-21T14:58:37;8.10;;;3.47;;
29776;SDS011;16677;52.224;7.484;2022-08-21T15:01:09;4.95;;;1.77;;
29776;SDS011;16677;52.224;7.484;2022-08-21T15:03:46;4.03;;;2.22;;
29776;SDS011;16677;52.224;7.484;2022-08-21T15:06:20;6.63;;;2.20;;
29776;SDS011;16677;52.224;7.484;2022-08-21T15:08:53;5.80;;;2.30;;
29776;SDS011;16677;52.224;7.484;2022-08-21T15:11:22;8.00;;;2.10;;
29776;SDS011;16677;52.224;7.484;2022-08-21T15:14:09;6.15;;;2.05;;
29776;SDS011;16677;52.224;7.484;2022-08-21T15:16:42;5.15;;;2.00;;
29776;SDS011;16677;52.224;7.484;2022-08-21T15:19:10;7.55;;;2.33;;
29776;SDS011;16677;52.224;7.484;2022-08-21T15:21:37;5.63;;;2.00;;
29776;SDS011;16677;52.224;7.484;2022-08-21T15:24:04;5.40;;;1.90;;
29776;SDS011;16677;52.224;7.484;2022-08-21T15:26:32;6.43;;;2.20;;
29776;SDS011;16677;52.224;7.484;2022-08-21T15:29:01;5.38;;;1.60;;
29776;SDS011;16677;52.224;7.484;2022-08-21T15:31:32;5.65;;;2.00;;
29776;SDS011;16677;52.224;7.484;2022-08-21T15:34:00;2.72;;;1.60;;
29776;SDS011;16677;52.224;7.484;2022-08-21T15:36:28;3.63;;;2.33;;
29776;SDS011;16677;52.224;7.484;2022-08-21T16:33:02;8.10;;;2.28;;
29776;SDS011;16677;52.224;7.484;2022-08-21T16:35:52;4.40;;;1.80;;
29776;SDS011;16677;52.224;7.484;2022-08-21T16:50:02;3.92;;;1.88;;
29776;SDS011;16677;52.224;7.484;2022-08-21T16:53:38;3.60;;;1.92;;
29776;SDS011;16677;52.224;7.484;2022-08-21T17:04:48;4.97;;;2.00;;
29776;SDS011;16677;52.224;7.484;2022-08-21T17:15:46;4.13;;;1.92;;
29776;SDS011;16677;52.224;7.484;2022-08-21T17:25:47;4.15;;;1.88;;
29776;SDS011;16677;52.224;7.484;2022-08-21T17:28:20;5.63;;;2.22;;
29776;SDS011;16677;52.224;7.484;2022-08-21T17:30:53;4.38;;;2.03;;
29776;SDS011;16677;52.224;7.484;2022-08-21T19:46:47;8.13;;;3.30;;
29776;SDS011;16677;52.224;7.484;2022-08-21T19:49:17;7.90;;;3.60;;
29776;SDS011;16677;52.224;7.484;2022-08-21T19:51:47;8.50;;;3.87;;
29776;SDS011;16677;52.224;7.484;2022-08-21T19:57:24;11.93;;;3.67;;
29776;SDS011;16677;52.224;7.484;2022-08-21T19:59:51;10.30;;;3.77;;
29776;SDS011;16677;52.224;7.484;2022-08-21T20:02:20;8.17;;;3.53;;
29776;SDS011;16677;52.224;7.484;2022-08-21T20:07:25;10.73;;;4.00;;
29776;SDS011;16677;52.224;7.484;2022-08-21T20:09:53;13.20;;;4.50;;
29776;SDS011;16677;52.224;7.484;2022-08-21T20:12:22;10.73;;;4.03;;
29776;SDS011;16677;52.224;7.484;2022-08-21T20:14:49;8.05;;;3.38;;
29776;SDS011;16677;52.224;7.484;2022-08-21T20:17:34;13.43;;;4.53;;
29776;SDS011;16677;52.224;7.484;2022-08-21T20:20:30;9.67;;;4.00;;
29776;SDS011;16677;52.224;7.484;2022-08-21T20:22:57;12.43;;;4.23;;
29776;SDS011;16677;52.224;7.484;2022-08-21T20:25:25;15.97;;;4.70;;
29776;SDS011;16677;52.224;7.484;2022-08-21T20:28:04;15.73;;;4.93;;
29776;SDS011;16677;52.224;7.484;2022-08-21T20:30:36;8.90;;;5.00;;
29776;SDS011;16677;52.224;7.484;2022-08-21T20:33:12;9.50;;;4.40;;
29776;SDS011;16677;52.224;7.484;2022-08-21T20:35:40;9.63;;;5.33;;
29776;SDS011;16677;52.224;7.484;2022-08-21T20:38:10;9.93;;;4.80;;
29776;SDS011;16677;52.224;7.484;2022-08-21T20:40:38;10.53;;;5.03;;
29776;SDS011;16677;52.224;7.484;2022-08-21T20:43:34;12.60;;;6.30;;
29776;SDS011;16677;52.224;7.484;2022-08-21T20:46:07;10.93;;;5.27;;
29776;SDS011;16677;52.224;7.484;2022-08-21T20:48:37;10.60;;;5.27;;
29776;SDS011;16677;52.224;7.484;2022-08-21T20:56:45;8.07;;;4.80;;
29776;SDS011;16677;52.224;7.484;2022-08-21T20:59:34;9.93;;;5.20;;
29776;SDS011;16677;52.224;7.484;2022-08-21T21:04:54;9.23;;;4.30;;
29776;SDS011;16677;52.224;7.484;2022-08-21T21:07:40;9.17;;;4.80;;
29776;SDS011;16677;52.224;7.484;2022-08-21T21:10:56;8.07;;;4.47;;
29776;SDS011;16677;52.224;7.484;2022-08-21T21:14:14;9.00;;;4.40;;
29776;SDS011;16677;52.224;7.484;2022-08-21T21:16:51;8.67;;;4.67;;
29776;SDS011;16677;52.224;7.484;2022-08-21T21:19:36;11.70;;;5.40;;
29776;SDS011;16677;52.224;7.484;2022-08-21T21:25:26;7.27;;;4.00;;
29776;SDS011;16677;52.224;7.484;2022-08-21T21:28:07;9.50;;;4.30;;
29776;SDS011;16677;52.224;7.484;2022-08-21T21:30:45;13.10;;;4.67;;
29776;SDS011;16677;52.224;7.484;2022-08-21T21:33:35;6.67;;;3.50;;
29776;SDS011;16677;52.224;7.484;2022-08-21T21:36:28;13.80;;;4.10;;
29776;SDS011;16677;52.224;7.484;2022-08-21T21:39:20;10.87;;;3.80;;
29776;SDS011;16677;52.224;7.484;2022-08-21T21:42:19;8.67;;;4.00;;
29776;SDS011;16677;52.224;7.484;2022-08-21T21:51:15;8.87;;;4.87;;
29776;SDS011;16677;52.224;7.484;2022-08-21T21:54:01;9.87;;;4.50;;
29776;SDS011;16677;52.224;7.484;2022-08-21T22:08:09;10.60;;;4.90;;
29776;SDS011;16677;52.224;7.484;2022-08-21T22:10:59;9.17;;;4.37;;
29776;SDS011;16677;52.224;7.484;2022-08-21T22:16:39;8.73;;;4.33;;
29776;SDS011;16677;52.224;7.484;2022-08-21T22:22:04;12.17;;;4.67;;
29776;SDS011;16677;52.224;7.484;2022-08-21T22:24:43;11.03;;;4.90;;
29776;SDS011;16677;52.224;7.484;2022-08-21T22:27:18;7.87;;;4.90;;
29776;SDS011;16677;52.224;7.484;2022-08-21T22:29:53;13.50;;;5.07;;
29776;SDS011;16677;52.224;7.484;2022-08-21T22:37:50;9.20;;;5.27;;
29776;SDS011;16677;52.224;7.484;2022-08-21T22:40:23;9.40;;;4.90;;
29776;SDS011;16677;52.224;7.484;2022-08-21T22:43:03;11.63;;;5.43;;
29776;SDS011;16677;52.224;7.484;2022-08-21T22:48:50;8.03;;;4.40;;
29776;SDS011;16677;52.224;7.484;2022-08-21T22:51:53;8.60;;;5.03;;
29776;SDS011;16677;52.224;7.484;2022-08-21T22:54:51;9.80;;;4.50;;
29776;SDS011;16677;52.224;7.484;2022-08-21T22:57:23;8.37;;;3.90;;
29776;SDS011;16677;52.224;7.484;2022-08-21T23:02:29;10.13;;;3.97;;
29776;SDS011;16677;52.224;7.484;2022-08-21T23:05:01;8.97;;;4.03;;
29776;SDS011;16677;52.224;7.484;2022-08-21T23:07:37;10.93;;;4.50;;
29776;SDS011;16677;52.224;7.484;2022-08-21T23:13:02;8.30;;;3.80;;
29776;SDS011;16677;52.224;7.484;2022-08-21T23:24:23;7.63;;;3.90;;
29776;SDS011;16677;52.224;7.484;2022-08-21T23:30:01;10.73;;;4.10;;
29776;SDS011;16677;52.224;7.484;2022-08-21T23:32:56;8.67;;;3.90;;
29776;SDS011;16677;52.224;7.484;2022-08-21T23:35:43;7.10;;;3.90;;
29776;SDS011;16677;52.224;7.484;2022-08-21T23:38:48;12.80;;;4.27;;
29776;SDS011;16677;52.224;7.484;2022-08-21T23:50:15;9.60;;;4.00;;
